Aliquippa, Pennsylvania
Current Conditions -  °F | °C
As of 5:51 AM on Wednesday 22 Oct 2014 (Local Time) from KPIT Reporting Station
Overcast Overcast  
Wind Chill:   Ceiling: 1800
Heat Index:   Visibility: 10mi
Dew Point:   Wind: 14mph
Humidity: 83%   Direction: 340°NNW
Pressure: 30.08"   Gusts: NA
Location:  40.62°N, 80.24°W
Report Text: KPIT 220951Z 34012KT 10SM OVC018 08/06 A3008 RMK AO2 SLP199 T00830056
Loading
Personal Weather Stations






























Interactive Weather Map
Tropical Storm Tracking
New forecast layout! Learn more

10-Day Weather Forecast

Advertisements
Track Severe Weather on mobile